Time;durP1;ratioP1;P1;durP2;ratioP2;P2;SDS_P1;SDS_P2;PMS_P1;PMS_P2;Temp;Humidity;BMP_temperature;BMP_pressure;BME280_temperature;BME280_humidity;BME280_pressure;Samples;Min_cycle;Max_cycle;Signal;HPM_P1;HPM_P2
2023/06/29 00:01:18;;;;;;;12.98;9.68;;;;;;;-146.58;100.00;69501.63;5032316;28;20051;-69
2023/06/29 00:03:43;;;;;;;24.13;13.30;;;;;;;-146.58;100.00;69501.63;5030690;28;20045;-70
2023/06/29 00:06:09;;;;;;;19.30;11.00;;;;;;;-146.58;100.00;69501.63;5031431;28;20480;-70
2023/06/29 00:08:36;;;;;;;17.25;11.55;;;;;;;-146.58;100.00;69501.63;5030844;28;20041;-70
2023/06/29 00:11:04;;;;;;;13.75;12.32;;;;;;;-146.58;100.00;69501.63;5032040;28;20488;-70
2023/06/29 00:13:30;;;;;;;16.52;11.52;;;;;;;-146.58;100.00;69501.63;5030199;28;20037;-71
2023/06/29 00:15:55;;;;;;;14.07;11.88;;;;;;;-146.58;100.00;69501.63;5031914;28;20435;-71
2023/06/29 00:18:20;;;;;;;18.77;12.82;;;;;;;-146.58;100.00;69501.63;5030766;28;20037;-71
2023/06/29 00:20:46;;;;;;;19.05;12.88;;;;;;;-146.58;100.00;69501.63;5031696;28;20022;-71
2023/06/29 00:23:11;;;;;;;30.45;13.60;;;;;;;-146.58;100.00;69501.63;5030230;28;20493;-71
2023/06/29 00:25:38;;;;;;;18.02;14.40;;;;;;;-146.58;100.00;69501.63;5031939;28;20029;-71
2023/06/29 00:28:04;;;;;;;13.10;11.52;;;;;;;-146.58;100.00;69501.63;5029415;28;20032;-73
2023/06/29 00:30:30;;;;;;;21.65;12.55;;;;;;;-146.58;100.00;69501.63;5031688;28;20029;-68
2023/06/29 00:32:55;;;;;;;18.00;12.80;;;;;;;-146.58;100.00;69501.63;5029992;28;20025;-65
2023/06/29 00:35:21;;;;;;;20.83;13.18;;;;;;;-146.58;100.00;69501.63;5031406;28;20025;-65
2023/06/29 00:37:46;;;;;;;22.55;12.77;;;;;;;-146.58;100.00;69501.63;5031716;28;20018;-66
2023/06/29 00:40:12;;;;;;;23.83;13.80;;;;;;;-146.58;100.00;69501.63;5030107;28;20045;-66
2023/06/29 00:42:37;;;;;;;13.48;11.25;;;;;;;-146.58;100.00;69501.63;5031323;28;20018;-66
2023/06/29 00:45:04;;;;;;;20.92;13.32;;;;;;;-146.58;100.00;69501.63;5029833;28;20099;-66
2023/06/29 00:47:30;;;;;;;16.25;14.48;;;;;;;-146.58;100.00;69501.63;5030920;28;20025;-66
2023/06/29 00:49:56;;;;;;;17.00;13.27;;;;;;;-146.58;100.00;69501.63;5029402;28;20049;-66
2023/06/29 00:52:23;;;;;;;16.35;12.38;;;;;;;-146.58;100.00;69501.63;5031434;28;20029;-66
2023/06/29 00:54:49;;;;;;;26.33;15.75;;;;;;;-146.58;100.00;69501.63;5029477;28;20419;-66
2023/06/29 00:57:14;;;;;;;18.10;13.23;;;;;;;-146.58;100.00;69501.63;5030993;28;20033;-66
2023/06/29 00:59:40;;;;;;;18.25;14.30;;;;;;;-146.58;100.00;69501.63;5028439;28;20053;-66
2023/06/29 01:02:07;;;;;;;17.00;13.05;;;;;;;-146.58;100.00;69501.63;5031157;28;20025;-66
2023/06/29 01:04:33;;;;;;;19.37;12.87;;;;;;;-146.58;100.00;69501.63;5029056;28;20073;-66
2023/06/29 01:07:21;;;;;;;24.17;13.93;;;;;;;-146.58;100.00;69501.63;5029156;28;20057;-66
2023/06/29 01:09:46;;;;;;;19.52;13.85;;;;;;;-146.58;100.00;69501.63;5009865;28;20037;-66
2023/06/29 01:12:13;;;;;;;17.33;13.15;;;;;;;-146.58;100.00;69501.63;5010917;28;20501;-66
2023/06/29 01:14:42;;;;;;;17.27;13.20;;;;;;;-146.58;100.00;69501.63;5008734;28;20455;-67
2023/06/29 01:17:11;;;;;;;13.00;11.68;;;;;;;-146.58;100.00;69501.63;5011274;28;20026;-67
2023/06/29 01:19:38;;;;;;;20.48;15.30;;;;;;;-146.58;100.00;69501.63;5009196;28;20104;-67
2023/06/29 01:22:17;;;;;;;20.35;13.02;;;;;;;-146.58;100.00;69501.63;5010981;28;20492;-67
2023/06/29 01:24:43;;;;;;;19.17;14.75;;;;;;;-146.58;100.00;69501.63;5026461;28;20046;-67
2023/06/29 01:27:09;;;;;;;20.08;13.60;;;;;;;-146.58;100.00;69501.63;5030145;28;20033;-67
2023/06/29 01:29:35;;;;;;;26.38;15.75;;;;;;;-146.58;100.00;69501.63;5029485;28;20116;-67
2023/06/29 01:32:03;;;;;;;18.63;13.52;;;;;;;-146.58;100.00;69501.63;5030729;28;20112;-67
2023/06/29 01:34:31;;;;;;;21.75;15.23;;;;;;;-146.58;100.00;69501.63;5029013;28;20451;-67
2023/06/29 01:37:02;;;;;;;17.33;15.35;;;;;;;-146.58;100.00;69501.63;5030730;28;20093;-67
2023/06/29 01:39:31;;;;;;;22.88;14.60;;;;;;;-146.58;100.00;69501.63;5029383;28;20124;-67
2023/06/29 01:41:57;;;;;;;;;;;;;;;-146.58;100.00;69501.63;5030901;28;20055;-71
2023/06/29 01:44:22;;;;;;;22.35;15.85;;;;;;;-146.58;100.00;69501.63;5027940;28;20342;-71
2023/06/29 01:46:48;;;;;;;25.92;16.30;;;;;;;-146.58;100.00;69501.63;5030114;28;20025;-72
2023/06/29 01:49:13;;;;;;;20.95;16.23;;;;;;;-146.58;100.00;69501.63;5028870;28;20069;-72
2023/06/29 01:51:39;;;;;;;18.52;14.68;;;;;;;-146.58;100.00;69501.63;5030783;28;20056;-72
2023/06/29 01:54:04;;;;;;;30.63;16.02;;;;;;;-146.58;100.00;69501.63;5028907;28;20046;-72
2023/06/29 01:56:30;;;;;;;24.08;15.15;;;;;;;-146.58;100.00;69501.63;5029993;28;20512;-72
2023/06/29 01:58:55;;;;;;;16.50;13.57;;;;;;;-146.58;100.00;69501.63;5029133;28;20504;-71
2023/06/29 02:01:21;;;;;;;23.05;16.73;;;;;;;-146.58;100.00;69501.63;5030776;28;20017;-72
2023/06/29 02:03:46;;;;;;;25.42;15.77;;;;;;;-146.58;100.00;69501.63;5028696;28;20739;-72
2023/06/29 02:06:12;;;;;;;23.52;16.15;;;;;;;-146.58;100.00;69501.63;5030250;28;20017;-72
2023/06/29 02:08:38;;;;;;;21.17;15.52;;;;;;;-146.58;100.00;69501.63;5027691;28;20057;-72
2023/06/29 02:11:04;;;;;;;21.25;15.38;;;;;;;-146.58;100.00;69501.63;5030003;28;20025;-72
2023/06/29 02:13:29;;;;;;;20.95;14.77;;;;;;;-146.58;100.00;69501.63;5029067;28;20100;-73
2023/06/29 02:15:54;;;;;;;27.33;15.18;;;;;;;-146.58;100.00;69501.63;5031005;28;20021;-73
2023/06/29 02:18:20;;;;;;;19.63;16.10;;;;;;;-146.58;100.00;69501.63;5032712;28;20038;-73
2023/06/29 02:20:45;;;;;;;15.60;13.85;;;;;;;-146.58;100.00;69501.63;5034242;28;20021;-73
2023/06/29 02:23:10;;;;;;;19.77;15.63;;;;;;;-146.58;100.00;69501.63;5032499;28;20392;-73
2023/06/29 02:25:36;;;;;;;23.55;15.25;;;;;;;-146.58;100.00;69501.63;5033836;28;20028;-74
2023/06/29 02:28:02;;;;;;;20.13;13.90;;;;;;;-146.58;100.00;69501.63;5032443;28;20021;-69
2023/06/29 02:30:27;;;;;;;29.67;17.60;;;;;;;-146.58;100.00;69501.63;5034059;28;20120;-69
2023/06/29 02:32:52;;;;;;;19.75;15.88;;;;;;;-146.58;100.00;69501.63;5031940;28;20037;-71
2023/06/29 02:35:18;;;;;;;24.13;14.38;;;;;;;-146.58;100.00;69501.63;5034122;28;20014;-69
2023/06/29 02:37:43;;;;;;;20.05;15.25;;;;;;;-146.58;100.00;69501.63;5033888;28;20484;-68
2023/06/29 02:40:09;;;;;;;21.80;17.13;;;;;;;-146.58;100.00;69501.63;5031999;28;20041;-68
2023/06/29 02:42:34;;;;;;;23.67;16.70;;;;;;;-146.58;100.00;69501.63;5033779;28;20045;-68
2023/06/29 02:45:00;;;;;;;24.52;14.27;;;;;;;-146.58;100.00;69501.63;5031911;28;20116;-68
2023/06/29 02:47:25;;;;;;;30.73;18.98;;;;;;;-146.58;100.00;69501.63;5033580;28;20021;-68
2023/06/29 02:49:50;;;;;;;22.30;14.75;;;;;;;-146.58;100.00;69501.63;5031725;28;20506;-67
2023/06/29 02:52:16;;;;;;;25.52;17.38;;;;;;;-146.58;100.00;69501.63;5033561;28;20025;-67
2023/06/29 02:54:41;;;;;;;26.38;14.93;;;;;;;-146.58;100.00;69501.63;5032205;28;20048;-67
2023/06/29 02:57:06;;;;;;;22.02;14.38;;;;;;;-146.58;100.00;69501.63;5031908;28;20038;-67
2023/06/29 02:59:33;;;;;;;16.92;14.85;;;;;;;-146.58;100.00;69501.63;5032255;28;20037;-67
2023/06/29 03:01:58;;;;;;;16.77;14.93;;;;;;;-146.58;100.00;69501.63;5033094;28;20052;-67
2023/06/29 03:04:23;;;;;;;18.02;14.18;;;;;;;-146.58;100.00;69501.63;5031673;28;20046;-68
2023/06/29 03:06:49;;;;;;;18.00;14.60;;;;;;;-146.58;100.00;69501.63;5032917;28;20071;-68
2023/06/29 03:09:14;;;;;;;23.45;14.68;;;;;;;-146.58;100.00;69501.63;5032070;28;20029;-68
2023/06/29 03:11:39;;;;;;;19.92;15.68;;;;;;;-146.58;100.00;69501.63;5032921;28;20021;-68
2023/06/29 03:14:05;;;;;;;25.10;14.52;;;;;;;-146.58;100.00;69501.63;5031463;28;20056;-68
2023/06/29 03:16:30;;;;;;;19.05;15.45;;;;;;;-146.58;100.00;69501.63;5033291;28;20017;-70
2023/06/29 03:18:55;;;;;;;30.88;17.30;;;;;;;-146.58;100.00;69501.63;5031266;28;20068;-69
2023/06/29 03:21:21;;;;;;;21.63;13.48;;;;;;;-146.58;100.00;69501.63;5033140;28;20518;-69
2023/06/29 03:23:47;;;;;;;27.77;16.85;;;;;;;-146.58;100.00;69501.63;5031614;28;20041;-69
2023/06/29 03:26:13;;;;;;;24.90;15.50;;;;;;;-146.58;100.00;69501.63;5032627;28;20057;-69
2023/06/29 03:28:38;;;;;;;22.35;14.90;;;;;;;-146.58;100.00;69501.63;5030209;28;20611;-69
2023/06/29 03:31:04;;;;;;;22.20;16.00;;;;;;;-146.58;100.00;69501.63;5031579;28;20029;-69
2023/06/29 03:33:29;;;;;;;20.30;16.42;;;;;;;-146.58;100.00;69501.63;5031063;28;20042;-69
2023/06/29 03:35:54;;;;;;;22.13;15.68;;;;;;;-146.58;100.00;69501.63;5031371;28;20037;-69
2023/06/29 03:38:20;;;;;;;21.25;16.40;;;;;;;-146.58;100.00;69501.63;5031494;28;20038;-69
2023/06/29 03:40:45;;;;;;;27.00;17.00;;;;;;;-146.58;100.00;69501.63;5032146;28;20028;-69
2023/06/29 03:43:10;;;;;;;29.02;18.27;;;;;;;-146.58;100.00;69501.63;5031264;28;20046;-69
2023/06/29 03:45:36;;;;;;;18.00;14.93;;;;;;;-146.58;100.00;69501.63;5032674;28;20025;-69
2023/06/29 03:48:01;;;;;;;18.38;14.27;;;;;;;-146.58;100.00;69501.63;5030604;28;20026;-69
2023/06/29 03:50:26;;;;;;;22.35;15.10;;;;;;;-146.58;100.00;69501.63;5032551;28;20389;-68
2023/06/29 03:52:52;;;;;;;19.13;15.82;;;;;;;-146.58;100.00;69501.63;5030483;28;20040;-68
2023/06/29 03:55:18;;;;;;;24.88;16.38;;;;;;;-146.58;100.00;69501.63;5032199;28;20037;-68
2023/06/29 03:57:43;;;;;;;27.58;15.85;;;;;;;-146.58;100.00;69501.63;5032663;28;20048;-68
2023/06/29 04:00:09;;;;;;;18.50;14.05;;;;;;;-146.58;100.00;69501.63;5030582;28;20101;-68
2023/06/29 04:02:34;;;;;;;18.85;16.70;;;;;;;-146.58;100.00;69501.63;5031892;28;20018;-68
2023/06/29 04:05:00;;;;;;;17.17;15.35;;;;;;;-146.58;100.00;69501.63;5030457;28;20467;-68
2023/06/29 04:07:25;;;;;;;18.95;16.08;;;;;;;-146.58;100.00;69501.63;5032001;28;20025;-69
2023/06/29 04:09:50;;;;;;;22.63;16.30;;;;;;;-146.58;100.00;69501.63;5029455;28;20041;-71
2023/06/29 04:12:16;;;;;;;17.77;15.32;;;;;;;-146.58;100.00;69501.63;5031515;28;20028;-72
2023/06/29 04:14:41;;;;;;;26.15;17.52;;;;;;;-146.58;100.00;69501.63;5030661;28;20111;-71
2023/06/29 04:17:06;;;;;;;25.52;16.98;;;;;;;-146.58;100.00;69501.63;5031464;28;20935;-66
2023/06/29 04:19:32;;;;;;;27.85;18.48;;;;;;;-146.58;100.00;69501.63;5030535;28;20046;-67
2023/06/29 04:21:57;;;;;;;18.55;14.70;;;;;;;-146.58;100.00;69501.63;5031658;28;20101;-66
2023/06/29 04:24:22;;;;;;;23.08;14.52;;;;;;;-146.58;100.00;69501.63;5029561;28;20056;-67
2023/06/29 04:26:48;;;;;;;16.30;12.57;;;;;;;-146.58;100.00;69501.63;5031572;28;20037;-66
2023/06/29 04:29:13;;;;;;;20.65;15.38;;;;;;;-146.58;100.00;69501.63;5030253;28;20041;-66
2023/06/29 04:31:38;;;;;;;24.77;13.70;;;;;;;-146.58;100.00;69501.63;5031418;28;20021;-66
2023/06/29 04:34:04;;;;;;;22.75;14.52;;;;;;;-146.58;100.00;69501.63;5028776;28;20056;-67
2023/06/29 04:36:30;;;;;;;18.13;13.80;;;;;;;-146.58;100.00;69501.63;5031878;28;20469;-66
2023/06/29 04:38:55;;;;;;;22.15;12.90;;;;;;;-146.58;100.00;69501.63;5029161;28;20045;-66
2023/06/29 04:41:30;;;;;;;22.75;15.00;;;;;;;-146.58;100.00;69501.63;5031674;28;20026;-66
2023/06/29 04:43:59;;;;;;;21.90;13.88;;;;;;;-146.58;100.00;69501.63;5029515;28;20042;-66
2023/06/29 04:46:28;;;;;;;18.23;12.77;;;;;;;-146.58;100.00;69501.63;5031215;28;20025;-66
2023/06/29 04:48:53;;;;;;;22.30;14.68;;;;;;;-146.58;100.00;69501.63;5029591;28;20128;-66
2023/06/29 04:51:18;;;;;;;21.65;14.60;;;;;;;-146.58;100.00;69501.63;5031494;28;20503;-66
2023/06/29 04:53:44;;;;;;;24.92;15.27;;;;;;;-146.58;100.00;69501.63;5029564;28;20048;-66
2023/06/29 04:56:09;;;;;;;20.27;14.68;;;;;;;-146.58;100.00;69501.63;5031320;28;20469;-66
2023/06/29 04:58:36;;;;;;;20.08;14.02;;;;;;;-146.58;100.00;69501.63;5029925;28;20385;-67
2023/06/29 05:01:02;;;;;;;23.27;13.73;;;;;;;-146.58;100.00;69501.63;5030663;28;20053;-67
2023/06/29 05:03:27;;;;;;;20.15;14.18;;;;;;;-146.58;100.00;69501.63;5019864;28;20053;-67
2023/06/29 05:05:52;;;;;;;19.33;13.40;;;;;;;-146.58;100.00;69501.63;5019424;28;20025;-67
2023/06/29 05:08:18;;;;;;;22.08;15.25;;;;;;;-146.58;100.00;69501.63;5016955;28;20046;-66
2023/06/29 05:10:44;;;;;;;23.75;15.40;;;;;;;-146.58;100.00;69501.63;5018651;28;20072;-66
2023/06/29 05:13:09;;;;;;;19.13;14.30;;;;;;;-146.58;100.00;69501.63;5021068;28;20034;-66
2023/06/29 05:15:35;;;;;;;22.58;14.27;;;;;;;-146.58;100.00;69501.63;5017431;28;20504;-66
2023/06/29 05:18:00;;;;;;;20.30;14.15;;;;;;;-146.58;100.00;69501.63;5017041;28;20029;-66
2023/06/29 05:20:26;;;;;;;27.80;15.55;;;;;;;-146.58;100.00;69501.63;5021705;28;20038;-66
2023/06/29 05:22:51;;;;;;;23.20;14.82;;;;;;;-146.58;100.00;69501.63;5019227;28;20032;-66
2023/06/29 05:25:16;;;;;;;37.92;15.13;;;;;;;-146.58;100.00;69501.63;5017395;28;20041;-66
2023/06/29 05:27:42;;;;;;;23.30;13.32;;;;;;;-146.58;100.00;69501.63;5017987;28;20029;-65
2023/06/29 05:30:11;;;;;;;26.15;15.18;;;;;;;-146.58;100.00;69501.63;5016267;28;20048;-66
2023/06/29 05:32:36;;;;;;;22.35;13.45;;;;;;;-146.58;100.00;69501.63;5020327;28;20473;-66
2023/06/29 05:35:02;;;;;;;18.35;12.15;;;;;;;-146.58;100.00;69501.63;5029373;28;20095;-66
2023/06/29 05:37:29;;;;;;;24.95;13.80;;;;;;;-146.58;100.00;69501.63;5029495;28;20561;-66
2023/06/29 05:39:56;;;;;;;19.40;13.25;;;;;;;-146.58;100.00;69501.63;5025392;28;20504;-66
2023/06/29 05:42:22;;;;;;;20.08;13.68;;;;;;;-146.58;100.00;69501.63;5028747;28;20049;-66
2023/06/29 05:44:47;;;;;;;20.35;13.25;;;;;;;-146.58;100.00;69501.63;5026245;28;20401;-66
2023/06/29 05:47:12;;;;;;;18.27;12.05;;;;;;;-146.58;100.00;69501.63;5027569;28;20036;-66
2023/06/29 05:49:38;;;;;;;15.60;12.48;;;;;;;-146.58;100.00;69501.63;5027795;28;20496;-66
2023/06/29 05:52:03;;;;;;;19.85;13.30;;;;;;;-146.58;100.00;69501.63;5031634;28;20040;-66
2023/06/29 05:54:29;;;;;;;20.20;13.98;;;;;;;-146.58;100.00;69501.63;5032679;28;20124;-66
2023/06/29 05:56:54;;;;;;;18.15;13.70;;;;;;;-146.58;100.00;69501.63;5033407;28;20504;-67
2023/06/29 05:59:19;;;;;;;26.83;16.38;;;;;;;-146.58;100.00;69501.63;5033166;28;20038;-66
2023/06/29 06:01:45;;;;;;;21.02;15.32;;;;;;;-146.58;100.00;69501.63;5033774;28;20029;-66
2023/06/29 06:04:10;;;;;;;18.55;13.07;;;;;;;-146.58;100.00;69501.63;5018437;28;20088;-65
2023/06/29 06:06:36;;;;;;;24.80;15.82;;;;;;;-146.58;100.00;69501.63;5031638;28;20025;-66
2023/06/29 06:09:02;;;;;;;21.08;14.13;;;;;;;-146.58;100.00;69501.63;5032245;28;20034;-66
2023/06/29 06:11:28;;;;;;;19.55;14.15;;;;;;;-146.58;100.00;69501.63;5034243;28;20056;-66
2023/06/29 06:13:53;;;;;;;20.90;14.10;;;;;;;-146.58;100.00;69501.63;5032571;28;20072;-66
2023/06/29 06:16:19;;;;;;;18.02;14.48;;;;;;;-146.58;100.00;69501.63;5033945;28;20065;-65
2023/06/29 06:18:44;;;;;;;19.40;12.05;;;;;;;-146.58;100.00;69501.63;5032767;28;20037;-65
2023/06/29 06:21:09;;;;;;;18.90;13.80;;;;;;;-146.58;100.00;69501.63;5034210;28;20523;-66
2023/06/29 06:23:35;;;;;;;22.83;13.90;;;;;;;-146.58;100.00;69501.63;5032518;28;20064;-66
2023/06/29 06:26:00;;;;;;;18.60;12.73;;;;;;;-146.58;100.00;69501.63;5034023;28;20028;-67
2023/06/29 06:28:26;;;;;;;18.45;12.85;;;;;;;-146.58;100.00;69501.63;5032589;28;20041;-67
2023/06/29 06:30:51;;;;;;;19.65;12.40;;;;;;;-146.58;100.00;69501.63;5033541;28;20021;-67
2023/06/29 06:33:17;;;;;;;18.95;13.45;;;;;;;-146.58;100.00;69501.63;5032701;28;20520;-67
2023/06/29 06:35:43;;;;;;;20.00;15.98;;;;;;;-146.58;100.00;69501.63;5034135;28;20033;-66
2023/06/29 06:38:08;;;;;;;24.60;16.23;;;;;;;-146.58;100.00;69501.63;5031900;28;20048;-67
2023/06/29 06:40:34;;;;;;;21.10;15.18;;;;;;;-146.58;100.00;69501.63;5033556;28;20029;-66
2023/06/29 06:42:59;;;;;;;24.13;15.90;;;;;;;-146.58;100.00;69501.63;5032229;28;20014;-66
2023/06/29 06:45:24;;;;;;;19.00;13.45;;;;;;;-146.58;100.00;69501.63;5033511;28;20017;-66
2023/06/29 06:47:50;;;;;;;19.98;14.85;;;;;;;-146.58;100.00;69501.63;5031531;28;20067;-66
2023/06/29 06:50:15;;;;;;;23.58;15.77;;;;;;;-146.58;100.00;69501.63;5033634;28;20021;-66
2023/06/29 06:52:40;;;;;;;34.22;18.85;;;;;;;-146.58;100.00;69501.63;5033387;28;20381;-66
2023/06/29 06:55:06;;;;;;;27.55;17.42;;;;;;;-146.58;100.00;69501.63;5032078;28;20048;-66
2023/06/29 06:57:32;;;;;;;22.30;16.70;;;;;;;-146.58;100.00;69501.63;5033662;28;20469;-66
2023/06/29 06:59:57;;;;;;;26.95;19.80;;;;;;;-146.58;100.00;69501.63;5031367;28;20041;-66
2023/06/29 07:02:23;;;;;;;25.52;17.33;;;;;;;-146.58;100.00;69501.63;5033231;28;20021;-66
2023/06/29 07:04:48;;;;;;;26.50;19.40;;;;;;;-146.58;100.00;69501.63;5030471;28;20471;-67
2023/06/29 07:07:13;;;;;;;22.08;17.50;;;;;;;-146.58;100.00;69501.63;5033042;28;20353;-66
2023/06/29 07:09:39;;;;;;;25.63;20.15;;;;;;;-146.58;100.00;69501.63;5032015;28;20061;-66
2023/06/29 07:12:04;;;;;;;26.95;18.67;;;;;;;-146.58;100.00;69501.63;5033199;28;20029;-67
2023/06/29 07:14:31;;;;;;;32.80;20.20;;;;;;;-146.58;100.00;69501.63;5031405;28;20047;-67
2023/06/29 07:16:57;;;;;;;29.55;21.02;;;;;;;-146.58;100.00;69501.63;5033033;28;20018;-66
2023/06/29 07:19:22;;;;;;;25.08;20.17;;;;;;;-146.58;100.00;69501.63;5031856;28;20041;-67
2023/06/29 07:21:48;;;;;;;26.85;18.55;;;;;;;-146.58;100.00;69501.63;5032645;28;20037;-67
2023/06/29 07:24:13;;;;;;;25.45;19.88;;;;;;;-146.58;100.00;69501.63;5031828;28;20038;-66
2023/06/29 07:26:39;;;;;;;27.00;18.85;;;;;;;-146.58;100.00;69501.63;5033033;28;20022;-66
2023/06/29 07:29:05;;;;;;;29.05;21.70;;;;;;;-146.58;100.00;69501.63;5030422;28;20381;-66
2023/06/29 07:31:31;;;;;;;34.03;23.40;;;;;;;-146.58;100.00;69501.63;5033136;28;20028;-67
2023/06/29 07:33:56;;;;;;;24.95;18.48;;;;;;;-146.58;100.00;69501.63;5031245;28;20045;-67
2023/06/29 07:36:23;;;;;;;27.52;18.35;;;;;;;-146.58;100.00;69501.63;5032577;28;20032;-67
2023/06/29 07:38:49;;;;;;;26.80;21.35;;;;;;;-146.58;100.00;69501.63;5031299;28;20117;-66
2023/06/29 07:41:16;;;;;;;27.05;19.15;;;;;;;-146.58;100.00;69501.63;5032901;28;20033;-66
2023/06/29 07:43:45;;;;;;;32.97;19.50;;;;;;;-146.58;100.00;69501.63;5029530;28;20396;-67
2023/06/29 07:46:11;;;;;;;27.33;19.05;;;;;;;-146.58;100.00;69501.63;5032395;28;20025;-67
2023/06/29 07:48:36;;;;;;;30.75;20.02;;;;;;;-146.58;100.00;69501.63;5031192;28;20095;-67
2023/06/29 07:51:03;;;;;;;33.00;19.60;;;;;;;-146.58;100.00;69501.63;5032070;28;20033;-67
2023/06/29 07:53:29;;;;;;;27.85;20.40;;;;;;;-146.58;100.00;69501.63;5030703;28;20659;-66
2023/06/29 07:55:54;;;;;;;25.13;20.40;;;;;;;-146.58;100.00;69501.63;5031042;28;20025;-66
2023/06/29 07:58:19;;;;;;;26.23;19.35;;;;;;;-146.58;100.00;69501.63;5030649;28;20036;-67
2023/06/29 08:00:45;;;;;;;39.13;23.63;;;;;;;-146.58;100.00;69501.63;5032398;28;20435;-67
2023/06/29 08:03:10;;;;;;;29.42;18.88;;;;;;;-146.58;100.00;69501.63;5030708;28;20052;-67
2023/06/29 08:05:35;;;;;;;26.15;19.10;;;;;;;-146.58;100.00;69501.63;5032264;28;20021;-67
2023/06/29 08:08:01;;;;;;;27.85;19.95;;;;;;;-146.58;100.00;69501.63;5030212;28;20048;-66
2023/06/29 08:10:26;;;;;;;30.30;20.50;;;;;;;-146.58;100.00;69501.63;5032399;28;20062;-66
2023/06/29 08:12:52;;;;;;;29.60;21.13;;;;;;;-146.58;100.00;69501.63;5030272;28;20017;-66
2023/06/29 08:15:17;;;;;;;27.48;17.90;;;;;;;-146.58;100.00;69501.63;5031285;28;20075;-67
2023/06/29 08:17:43;;;;;;;31.15;20.25;;;;;;;-146.58;100.00;69501.63;5032128;28;20029;-67
2023/06/29 08:20:14;;;;;;;35.22;20.48;;;;;;;-146.58;100.00;69501.63;5030311;28;20413;-67
2023/06/29 08:22:40;;;;;;;27.88;17.85;;;;;;;-146.58;100.00;69501.63;5031848;28;20522;-67
2023/06/29 08:25:06;;;;;;;26.88;18.40;;;;;;;-146.58;100.00;69501.63;5029962;28;20567;-66
2023/06/29 08:27:31;;;;;;;24.83;19.88;;;;;;;-146.58;100.00;69501.63;5031331;28;20029;-67
2023/06/29 08:29:57;;;;;;;30.70;18.60;;;;;;;-146.58;100.00;69501.63;5029941;28;20033;-67
2023/06/29 08:32:23;;;;;;;28.33;21.10;;;;;;;-146.58;100.00;69501.63;5031800;28;20455;-66
2023/06/29 08:34:48;;;;;;;29.88;21.40;;;;;;;-146.58;100.00;69501.63;5029969;28;20069;-67
2023/06/29 08:37:13;;;;;;;35.97;22.15;;;;;;;-146.58;100.00;69501.63;5031380;28;20025;-66
2023/06/29 08:39:39;;;;;;;27.95;20.63;;;;;;;-146.58;100.00;69501.63;5026956;28;20045;-67
2023/06/29 08:42:05;;;;;;;36.97;24.13;;;;;;;-146.58;100.00;69501.63;5031376;28;20022;-67
2023/06/29 08:44:30;;;;;;;32.00;21.50;;;;;;;-146.58;100.00;69501.63;5029756;28;20038;-66
2023/06/29 08:47:00;;;;;;;30.92;19.83;;;;;;;-146.58;100.00;69501.63;5031012;28;20029;-67
2023/06/29 08:49:27;;;;;;;37.17;22.38;;;;;;;-146.58;100.00;69501.63;5030165;28;20510;-68
2023/06/29 08:51:57;;;;;;;37.53;23.15;;;;;;;-146.58;100.00;69501.63;5030941;28;20035;-69
2023/06/29 08:54:26;;;;;;;37.38;22.08;;;;;;;-146.58;100.00;69501.63;5028610;28;20531;-66
2023/06/29 08:56:51;;;;;;;32.22;20.08;;;;;;;-146.58;100.00;69501.63;5031168;28;20025;-67
2023/06/29 08:59:16;;;;;;;31.40;22.48;;;;;;;-146.58;100.00;69501.63;5029673;28;20060;-68
2023/06/29 09:01:42;;;;;;;34.13;21.58;;;;;;;-146.58;100.00;69501.63;5031062;28;20499;-69
2023/06/29 09:04:08;;;;;;;23.63;19.25;;;;;;;-146.58;100.00;69501.63;5029548;28;20523;-68
2023/06/29 09:06:33;;;;;;;35.90;22.00;;;;;;;-146.58;100.00;69501.63;5031010;28;20037;-69
2023/06/29 09:08:59;;;;;;;31.38;21.70;;;;;;;-146.58;100.00;69501.63;5029359;28;20038;-66
2023/06/29 09:11:24;;;;;;;27.65;21.70;;;;;;;-146.58;100.00;69501.63;5031087;28;20025;-67
2023/06/29 09:13:50;;;;;;;35.42;21.98;;;;;;;-146.58;100.00;69501.63;5029115;28;20041;-67
2023/06/29 09:16:17;;;;;;;35.47;21.35;;;;;;;-146.58;100.00;69501.63;5031172;28;20025;-67
2023/06/29 09:18:48;;;;;;;34.78;21.90;;;;;;;-146.58;100.00;69501.63;5029659;28;20057;-68
2023/06/29 09:21:17;;;;;;;28.85;21.65;;;;;;;-146.58;100.00;69501.63;5030833;28;20029;-67
2023/06/29 09:23:44;;;;;;;31.67;22.50;;;;;;;-146.58;100.00;69501.63;5029385;28;20029;-67
2023/06/29 09:26:09;;;;;;;27.05;20.20;;;;;;;-146.58;100.00;69501.63;5028648;28;20660;-68
2023/06/29 09:28:35;;;;;;;32.05;22.60;;;;;;;-146.58;100.00;69501.63;5029098;28;20030;-68
2023/06/29 09:31:06;;;;;;;29.23;19.05;;;;;;;-146.58;100.00;69501.63;5030669;28;20036;-67
2023/06/29 09:33:31;;;;;;;31.00;22.88;;;;;;;-146.58;100.00;69501.63;5030800;28;20025;-69
2023/06/29 09:36:06;;;;;;;33.22;22.80;;;;;;;23.63;100.00;166755.84;5028772;28;20389;-67
2023/06/29 09:38:32;;;;;;;33.00;22.38;;;;;;;23.64;100.00;166757.19;5030780;28;20043;-66
2023/06/29 09:40:59;;;;;;;30.60;21.63;;;;;;;23.81;100.00;166802.03;5029149;28;20505;-66
2023/06/29 09:43:29;;;;;;;32.53;21.10;;;;;;;23.91;100.00;166829.25;5030480;28;20029;-67
2023/06/29 09:46:06;;;;;;;32.60;24.77;;;;;;;23.98;100.00;166848.34;5028747;28;20144;-66
2023/06/29 09:48:31;;;;;;;29.23;22.37;;;;;;;23.95;100.00;166838.81;5030624;28;20108;-67
2023/06/29 09:50:57;;;;;;;30.77;24.63;;;;;;;23.91;100.00;166829.25;5028634;28;20092;-66
2023/06/29 09:53:32;;;;;;;31.90;22.63;;;;;;;24.01;100.00;166856.53;5030528;28;20025;-68
2023/06/29 09:55:59;;;;;;;36.97;23.63;;;;;;;24.22;100.00;166910.91;5029065;28;20069;-67
2023/06/29 09:58:26;;;;;;;30.27;23.23;;;;;;;24.31;100.00;166934.00;5030461;28;20071;-68
2023/06/29 10:00:53;;;;;;;32.83;24.50;;;;;;;24.25;100.00;166919.03;5028866;28;20037;-67
2023/06/29 10:03:18;;;;;;;31.17;23.33;;;;;;;24.44;100.00;166968.03;5030445;28;20077;-67
2023/06/29 10:05:45;;;;;;;32.63;23.27;;;;;;;24.55;100.00;166999.31;5028937;28;20042;-68
2023/06/29 10:08:14;;;;;;;34.38;24.25;;;;;;;24.59;100.00;167007.44;5030240;28;20032;-67
2023/06/29 10:10:41;;;;;;;29.77;23.13;;;;;;;24.54;100.00;166995.19;5029218;28;20124;-68
2023/06/29 10:13:07;;;;;;;25.20;19.75;;;;;;;24.67;100.00;167030.66;5029839;28;20017;-69
2023/06/29 10:15:35;;;;;;;32.08;21.33;;;;;;;24.71;100.00;167040.19;5029094;28;20146;-67
2023/06/29 10:18:11;;;;;;;;;;;;;;;24.70;100.00;167037.44;5030781;28;20099;-68
2023/06/29 10:20:40;;;;;;;27.83;20.60;;;;;;;24.83;100.00;167071.47;5028279;28;20015;-67
2023/06/29 10:23:06;;;;;;;31.45;23.33;;;;;;;24.81;100.00;167066.00;5029942;28;20022;-68
2023/06/29 10:25:36;;;;;;;33.80;22.45;;;;;;;-146.58;100.00;69501.63;5028396;28;20041;-67
2023/06/29 10:28:03;;;;;;;32.08;22.63;;;;;;;-146.58;100.00;69501.63;5026760;28;20595;-67
2023/06/29 10:30:28;;;;;;;31.90;23.95;;;;;;;-146.58;100.00;69501.63;5030139;28;20112;-67
2023/06/29 10:32:53;;;;;;;34.42;21.77;;;;;;;-146.58;100.00;69501.63;5028624;28;20076;-68
2023/06/29 10:35:23;;;;;;;35.80;21.42;;;;;;;-146.58;100.00;69501.63;5029682;28;20017;-68
2023/06/29 10:37:50;;;;;;;30.73;22.83;;;;;;;-146.58;100.00;69501.63;5032263;28;20029;-67
2023/06/29 10:40:22;;;;;;;27.35;22.67;;;;;;;-146.58;100.00;69501.63;5032752;28;20045;-66
2023/06/29 10:42:50;;;;;;;28.85;22.63;;;;;;;-146.58;100.00;69501.63;5033347;28;20029;-66
2023/06/29 10:45:16;;;;;;;30.70;23.67;;;;;;;-146.58;100.00;69501.63;5032751;28;20125;-65
2023/06/29 10:47:41;;;;;;;30.67;22.85;;;;;;;-146.58;100.00;69501.63;5033682;28;20038;-66
2023/06/29 10:50:13;;;;;;;32.70;25.25;;;;;;;-146.58;100.00;69501.63;5031598;28;20426;-66